createdAt,value
2019-04-11T00:00:09.049Z,5.70
2019-04-11T00:02:40.557Z,5.70
2019-04-11T00:05:10.605Z,5.60
2019-04-11T00:07:40.535Z,5.60
2019-04-11T00:10:14.406Z,5.60
2019-04-11T00:12:43.050Z,5.50
2019-04-11T00:15:20.735Z,5.50
2019-04-11T00:17:50.212Z,5.50
2019-04-11T00:20:20.591Z,5.50
2019-04-11T00:22:49.941Z,5.50
2019-04-11T00:25:20.361Z,5.40
2019-04-11T00:27:49.690Z,5.40
2019-04-11T00:30:19.838Z,5.40
2019-04-11T00:32:50.284Z,5.30
2019-04-11T00:35:19.768Z,5.30
2019-04-11T00:37:52.214Z,5.20
2019-04-11T00:40:21.611Z,5.20
2019-04-11T00:42:50.963Z,5.20
2019-04-11T00:56:36.653Z,5.10
2019-04-11T00:59:06.042Z,5.10
2019-04-11T01:01:35.686Z,5.10
2019-04-11T01:04:05.002Z,5.00
2019-04-11T01:06:34.411Z,5.00
2019-04-11T01:09:06.289Z,5.00
2019-04-11T01:11:36.397Z,4.90
2019-04-11T01:14:07.728Z,4.90
2019-04-11T01:16:45.094Z,4.90
2019-04-11T01:19:16.353Z,4.90
2019-04-11T01:21:45.686Z,4.80
2019-04-11T01:24:15.630Z,4.90
2019-04-11T01:26:45.523Z,4.90
2019-04-11T01:29:15.446Z,4.80
2019-04-11T01:31:46.362Z,4.80
2019-04-11T01:34:16.193Z,4.80
2019-04-11T01:36:45.551Z,4.70
2019-04-11T01:39:32.797Z,4.80
2019-04-11T01:42:02.768Z,4.70
2019-04-11T01:44:33.121Z,4.70
2019-04-11T01:47:03.162Z,4.60
2019-04-11T01:49:32.445Z,4.60
2019-04-11T01:52:04.747Z,4.60
2019-04-11T01:54:33.570Z,4.60
2019-04-11T01:57:03.499Z,4.50
2019-04-11T01:59:32.815Z,4.50
2019-04-11T02:02:15.682Z,4.50
2019-04-11T02:04:46.616Z,4.50
2019-04-11T02:07:15.957Z,4.40
2019-04-11T02:09:46.285Z,4.40
2019-04-11T02:12:16.284Z,4.40
2019-04-11T02:14:45.938Z,4.40
2019-04-11T02:17:15.216Z,4.40
2019-04-11T02:19:44.776Z,4.40
2019-04-11T02:22:32.730Z,4.50
2019-04-11T02:25:06.387Z,4.40
2019-04-11T02:27:37.343Z,4.30
2019-04-11T02:30:08.612Z,4.30
2019-04-11T02:32:38.030Z,4.30
2019-04-11T02:35:08.496Z,4.30
2019-04-11T02:37:38.403Z,4.30
2019-04-11T02:40:08.968Z,4.20
2019-04-11T02:42:39.214Z,4.20
2019-04-11T02:45:19.658Z,4.20
2019-04-11T02:47:41.977Z,4.20
2019-04-11T02:50:12.486Z,4.20
2019-04-11T02:52:42.215Z,4.20
2019-04-11T02:55:13.006Z,4.20
2019-04-11T02:57:43.077Z,4.10
2019-04-11T03:00:13.104Z,4.10
2019-04-11T03:02:44.375Z,4.10
2019-04-11T03:05:13.828Z,4.10
2019-04-11T03:07:43.184Z,4.10
2019-04-11T03:10:14.106Z,4.10
2019-04-11T03:12:44.301Z,4.10
2019-04-11T03:15:28.962Z,4.10
2019-04-11T03:17:47.898Z,4.00
2019-04-11T03:20:26.397Z,4.00
2019-04-11T03:22:54.105Z,4.00
2019-04-11T03:25:17.981Z,4.00
2019-04-11T03:27:47.929Z,4.00
2019-04-11T03:30:24.851Z,4.00
2019-04-11T03:33:50.338Z,3.90
2019-04-11T03:36:07.491Z,3.90
2019-04-11T03:38:12.385Z,3.90
2019-04-11T03:40:38.524Z,3.80
2019-04-11T03:43:06.263Z,3.80
2019-04-11T03:45:45.181Z,3.80
2019-04-11T03:48:10.510Z,3.70
2019-04-11T03:50:30.497Z,3.80
2019-04-11T03:52:59.460Z,3.70
2019-04-11T03:55:30.047Z,3.70
2019-04-11T03:58:01.020Z,3.70
2019-04-11T04:00:35.780Z,3.70
2019-04-11T04:03:01.651Z,3.70
2019-04-11T04:05:34.698Z,3.70
2019-04-11T04:08:04.552Z,3.70
2019-04-11T04:10:36.159Z,3.70
2019-04-11T04:13:09.917Z,3.60
2019-04-11T04:16:00.117Z,3.60
2019-04-11T04:18:19.318Z,3.60
2019-04-11T04:21:10.616Z,3.60
2019-04-11T04:23:43.232Z,3.60
2019-04-11T04:26:12.601Z,3.60
2019-04-11T04:28:42.970Z,3.50
2019-04-11T04:31:14.012Z,3.50
2019-04-11T04:33:45.325Z,3.50
2019-04-11T04:36:16.017Z,3.50
2019-04-11T04:38:46.452Z,3.50
2019-04-11T04:41:28.217Z,3.50
2019-04-11T04:43:48.110Z,3.50
2019-04-11T04:46:35.074Z,3.50
2019-04-11T04:48:51.035Z,3.50
2019-04-11T04:51:21.727Z,3.50
2019-04-11T04:53:52.100Z,3.40
2019-04-11T04:56:26.429Z,3.40
2019-04-11T04:58:54.077Z,3.40
2019-04-11T05:01:23.830Z,3.40
2019-04-11T05:03:54.061Z,3.40
2019-04-11T05:06:24.121Z,3.40
2019-04-11T05:08:53.450Z,3.40
2019-04-11T05:11:23.158Z,3.40
2019-04-11T05:13:52.609Z,3.40
2019-04-11T05:16:21.850Z,3.40
2019-04-11T05:18:51.116Z,3.40
2019-04-11T05:21:21.369Z,3.40
2019-04-11T05:23:50.608Z,3.40
2019-04-11T05:26:19.873Z,3.40
2019-04-11T05:28:49.130Z,3.40
2019-04-11T05:31:18.556Z,3.50
2019-04-11T05:33:49.718Z,3.50
2019-04-11T05:36:18.998Z,3.40
2019-04-11T05:38:48.667Z,3.50
2019-04-11T05:41:20.525Z,3.40
2019-04-11T05:43:49.366Z,3.50
2019-04-11T05:46:31.189Z,3.50
2019-04-11T05:48:51.188Z,3.60
2019-04-11T05:51:23.363Z,3.60
2019-04-11T05:53:54.521Z,3.70
2019-04-11T05:56:25.628Z,3.60
2019-04-11T05:58:57.700Z,3.70
2019-04-11T06:01:29.118Z,3.70
2019-04-11T06:04:00.500Z,3.80
2019-04-11T06:06:36.948Z,3.80
2019-04-11T06:09:10.395Z,3.90
2019-04-11T06:11:55.038Z,3.90
2019-04-11T06:14:27.987Z,4.00
2019-04-11T06:16:59.185Z,4.00
2019-04-11T06:19:48.202Z,4.10
2019-04-11T06:22:19.735Z,4.20
2019-04-11T06:25:03.552Z,4.30
2019-04-11T06:27:42.225Z,4.30
2019-04-11T06:30:28.424Z,4.40
2019-04-11T06:33:12.234Z,4.60
2019-04-11T06:35:44.100Z,4.70
2019-04-11T06:38:20.771Z,4.80
2019-04-11T06:40:52.462Z,4.80
2019-04-11T06:43:26.315Z,4.80
2019-04-11T06:46:11.606Z,4.90
2019-04-11T06:48:45.521Z,5.00
2019-04-11T06:51:16.386Z,5.20
2019-04-11T06:53:50.457Z,5.30
2019-04-11T06:56:21.389Z,5.40
2019-04-11T06:58:53.598Z,5.50
2019-04-11T07:01:28.199Z,5.60
2019-04-11T07:03:59.094Z,5.80
2019-04-11T07:06:30.016Z,5.80
2019-04-11T07:09:10.063Z,5.80
2019-04-11T07:11:52.948Z,5.90
2019-04-11T07:14:33.259Z,6.00
2019-04-11T07:17:21.087Z,6.00
2019-04-11T07:20:07.175Z,6.10
2019-04-11T07:22:53.850Z,6.20
2019-04-11T07:25:41.103Z,6.20
2019-04-11T07:28:12.034Z,6.30
2019-04-11T07:31:00.332Z,6.40
2019-04-11T07:33:31.438Z,6.50
2019-04-11T07:36:18.591Z,6.60
2019-04-11T07:39:07.653Z,6.80
2019-04-11T07:41:39.621Z,7.00
2019-04-11T07:44:17.612Z,7.20
2019-04-11T07:46:51.631Z,7.20
2019-04-11T07:49:38.934Z,7.30
2019-04-11T07:52:15.894Z,7.50
2019-04-11T07:54:45.629Z,7.60
2019-04-11T07:57:19.440Z,7.70
2019-04-11T07:59:56.244Z,7.80
2019-04-11T08:02:43.499Z,8.00
2019-04-11T08:05:30.468Z,8.00
2019-04-11T08:08:01.361Z,8.10
2019-04-11T08:10:33.026Z,8.10
2019-04-11T08:13:03.987Z,8.20
2019-04-11T08:15:51.095Z,8.30
2019-04-11T08:18:34.992Z,8.30
2019-04-11T08:21:21.994Z,8.40
2019-04-11T08:23:54.107Z,8.50
2019-04-11T08:26:42.242Z,8.50
2019-04-11T08:29:14.570Z,8.60
2019-04-11T08:32:00.574Z,8.80
2019-04-11T08:34:31.467Z,9.10
2019-04-11T08:37:19.313Z,9.20
2019-04-11T08:39:49.178Z,9.20
2019-04-11T08:42:37.347Z,9.30
2019-04-11T08:45:08.692Z,9.30
2019-04-11T08:47:46.818Z,9.60
2019-04-11T08:50:12.301Z,9.80
2019-04-11T08:52:44.346Z,9.90
2019-04-11T08:55:17.155Z,10.10
2019-04-11T08:57:47.901Z,10.20
2019-04-11T09:00:24.486Z,10.20
2019-04-11T09:02:59.529Z,10.20
2019-04-11T09:05:33.417Z,10.30
2019-04-11T09:08:23.290Z,10.50
2019-04-11T09:11:12.774Z,10.60
2019-04-11T09:13:49.800Z,10.80
2019-04-11T09:16:35.522Z,10.80
2019-04-11T09:19:06.433Z,10.80
2019-04-11T09:21:53.458Z,11.00
2019-04-11T09:24:24.365Z,11.20
2019-04-11T09:26:56.186Z,11.20
2019-04-11T09:29:28.419Z,11.30
2019-04-11T09:32:00.127Z,11.30
2019-04-11T09:34:31.081Z,11.40
2019-04-11T09:37:03.064Z,11.60
2019-04-11T09:39:37.257Z,11.40
2019-04-11T09:42:19.801Z,11.50
2019-04-11T09:44:49.522Z,11.50
2019-04-11T09:47:36.244Z,11.40
2019-04-11T09:50:18.205Z,11.40
2019-04-11T09:52:49.589Z,11.40
2019-04-11T09:55:29.567Z,11.40
2019-04-11T09:58:01.199Z,11.50
2019-04-11T10:00:36.690Z,11.60
2019-04-11T10:03:08.734Z,11.70
2019-04-11T10:05:42.665Z,11.70
2019-04-11T10:08:24.673Z,11.80
2019-04-11T10:11:08.008Z,11.80
2019-04-11T10:13:51.289Z,12.10
2019-04-11T10:16:22.188Z,12.30
2019-04-11T10:18:53.634Z,12.30
2019-04-11T10:21:25.859Z,12.40
2019-04-11T10:23:57.002Z,12.30
2019-04-11T10:26:27.920Z,12.30
2019-04-11T10:29:00.164Z,12.30
2019-04-11T10:31:31.133Z,12.50
2019-04-11T10:34:11.313Z,12.50
2019-04-11T10:36:43.324Z,12.60
2019-04-11T10:39:22.893Z,12.80
2019-04-11T10:41:57.868Z,12.50
2019-04-11T10:44:29.816Z,12.40
2019-04-11T10:47:01.986Z,12.50
2019-04-11T10:49:33.013Z,12.50
2019-04-11T10:52:15.805Z,12.60
2019-04-11T10:54:47.424Z,12.60
2019-04-11T10:57:36.211Z,12.60
2019-04-11T11:00:15.638Z,12.60
2019-04-11T11:02:58.334Z,12.90
2019-04-11T11:05:30.435Z,12.90
2019-04-11T11:08:01.406Z,12.90
2019-04-11T11:10:33.252Z,12.90
2019-04-11T11:13:16.202Z,12.60
2019-04-11T11:15:47.558Z,12.60
2019-04-11T11:18:54.002Z,12.90
2019-04-11T11:21:05.704Z,13.30
2019-04-11T11:23:54.629Z,13.60
2019-04-11T11:26:24.806Z,13.80
2019-04-11T11:29:07.104Z,14.00
2019-04-11T11:31:36.187Z,13.70
2019-04-11T11:34:09.156Z,12.80
2019-04-11T11:36:43.744Z,12.50
2019-04-11T11:39:33.352Z,12.50
2019-04-11T11:42:20.385Z,12.70
2019-04-11T11:45:07.521Z,12.60
2019-04-11T11:47:55.282Z,12.60
2019-04-11T11:50:31.849Z,12.70
2019-04-11T11:53:18.473Z,12.60
2019-04-11T11:55:49.568Z,12.70
2019-04-11T11:58:37.531Z,12.90
2019-04-11T12:01:09.373Z,12.90
2019-04-11T12:03:46.742Z,12.80
2019-04-11T12:06:22.314Z,12.60
2019-04-11T12:08:56.072Z,12.60
2019-04-11T12:11:26.340Z,12.90
2019-04-11T12:14:13.751Z,13.30
2019-04-11T12:17:01.197Z,13.20
2019-04-11T12:19:29.017Z,13.20
2019-04-11T12:22:00.244Z,13.30
2019-04-11T12:24:34.430Z,13.20
2019-04-11T12:27:11.583Z,13.40
2019-04-11T12:30:01.405Z,13.60
2019-04-11T12:32:39.006Z,13.60
2019-04-11T12:35:24.282Z,13.90
2019-04-11T12:37:57.919Z,13.90
2019-04-11T12:40:46.809Z,13.90
2019-04-11T12:43:17.164Z,13.60
2019-04-11T12:45:50.794Z,13.40
2019-04-11T12:48:21.865Z,13.30
2019-04-11T12:50:55.706Z,13.40
2019-04-11T12:53:24.988Z,13.40
2019-04-11T12:55:55.900Z,13.50
2019-04-11T12:58:35.394Z,13.50
2019-04-11T13:01:22.607Z,13.60
2019-04-11T13:04:11.418Z,13.60
2019-04-11T13:06:42.316Z,13.50
2019-04-11T13:09:19.295Z,13.60
2019-04-11T13:11:59.208Z,13.70
2019-04-11T13:14:30.125Z,13.90
2019-04-11T13:17:10.011Z,14.00
2019-04-11T13:19:46.835Z,13.80
2019-04-11T13:22:17.802Z,13.50
2019-04-11T13:24:51.460Z,13.70
2019-04-11T13:27:22.382Z,13.60
2019-04-11T13:30:05.371Z,13.60
2019-04-11T13:32:45.423Z,13.80
2019-04-11T13:35:25.269Z,13.80
2019-04-11T13:38:12.415Z,13.60
2019-04-11T13:40:46.253Z,13.90
2019-04-11T13:43:20.140Z,15.10
2019-04-11T13:46:05.302Z,16.00
2019-04-11T13:48:48.208Z,16.40
2019-04-11T13:51:31.004Z,16.80
2019-04-11T13:54:16.751Z,17.20
2019-04-11T13:57:05.710Z,17.50
2019-04-11T13:59:36.617Z,17.60
2019-04-11T14:02:07.611Z,18.00
2019-04-11T14:04:41.528Z,18.40
2019-04-11T14:07:11.871Z,18.40
2019-04-11T14:09:42.690Z,18.40
2019-04-11T14:12:12.135Z,18.40
2019-04-11T14:14:41.966Z,18.30
2019-04-11T14:17:12.865Z,18.50
2019-04-11T14:19:43.757Z,18.70
2019-04-11T14:22:14.678Z,18.90
2019-04-11T14:24:51.519Z,19.10
2019-04-11T14:27:25.358Z,18.30
2019-04-11T14:30:07.970Z,18.30
2019-04-11T14:32:44.811Z,18.70
2019-04-11T14:35:32.087Z,18.90
2019-04-11T14:38:02.996Z,18.80
2019-04-11T14:40:36.632Z,19.30
2019-04-11T14:43:16.878Z,19.60
2019-04-11T14:45:53.773Z,19.90
2019-04-11T14:48:40.060Z,19.80
2019-04-11T14:51:15.982Z,19.70
2019-04-11T14:53:46.309Z,19.90
2019-04-11T14:56:16.950Z,20.10
2019-04-11T14:59:03.978Z,20.10
2019-04-11T15:01:33.302Z,20.10
2019-04-11T15:04:19.309Z,20.20
2019-04-11T15:06:56.026Z,20.30
2019-04-11T15:09:46.461Z,20.40
2019-04-11T15:12:18.673Z,20.70
2019-04-11T15:15:11.339Z,20.90
2019-04-11T15:17:41.990Z,21.10
2019-04-11T15:20:27.894Z,20.80
2019-04-11T15:23:06.683Z,20.60
2019-04-11T15:25:46.253Z,20.50
2019-04-11T15:28:20.545Z,20.50
2019-04-11T15:30:53.975Z,20.20
2019-04-11T15:33:40.955Z,20.50
2019-04-11T15:36:11.886Z,20.80
2019-04-11T15:38:49.050Z,20.50
2019-04-11T15:41:18.293Z,20.20
2019-04-11T15:43:58.111Z,20.10
2019-04-11T15:46:29.015Z,19.90
2019-04-11T15:49:21.250Z,19.00
2019-04-11T15:51:50.630Z,17.60
2019-04-11T15:54:37.843Z,16.00
2019-04-11T15:57:12.282Z,15.10
2019-04-11T15:59:43.825Z,14.40
2019-04-11T16:02:30.135Z,14.00
2019-04-11T16:05:02.098Z,13.80
2019-04-11T16:07:47.031Z,13.70
2019-04-11T16:10:16.765Z,13.70
2019-04-11T16:12:48.651Z,13.50
2019-04-11T16:15:23.292Z,13.40
2019-04-11T16:18:10.620Z,13.30
2019-04-11T16:20:39.991Z,13.30
2019-04-11T16:23:10.879Z,13.30
2019-04-11T16:25:40.394Z,13.20
2019-04-11T16:28:21.030Z,13.10
2019-04-11T16:30:57.994Z,13.00
2019-04-11T16:33:31.842Z,13.00
2019-04-11T16:36:20.242Z,13.00
2019-04-11T16:39:08.714Z,12.90
2019-04-11T16:41:48.847Z,12.90
2019-04-11T16:44:34.666Z,12.90
2019-04-11T16:47:08.185Z,12.90
2019-04-11T16:49:36.478Z,12.80
2019-04-11T16:52:08.311Z,12.80
2019-04-11T16:54:40.011Z,12.70
2019-04-11T16:57:13.559Z,12.60
2019-04-11T16:59:41.286Z,12.50
2019-04-11T17:02:10.619Z,12.50
2019-04-11T17:04:47.230Z,12.50
2019-04-11T17:07:26.157Z,12.50
2019-04-11T17:09:56.837Z,12.50
2019-04-11T17:12:27.220Z,12.40
2019-04-11T17:14:58.283Z,12.30
2019-04-11T17:17:30.616Z,12.10
2019-04-11T17:20:05.904Z,12.00
2019-04-11T17:22:34.184Z,11.90
2019-04-11T17:25:04.179Z,11.90
2019-04-11T17:27:33.538Z,11.80
2019-04-11T17:30:02.857Z,11.80
2019-04-11T17:32:32.179Z,11.70
2019-04-11T17:35:01.961Z,11.70
2019-04-11T17:37:33.232Z,11.60
2019-04-11T17:40:06.605Z,11.40
2019-04-11T17:42:36.823Z,11.40
2019-04-11T17:45:06.273Z,11.30
2019-04-11T17:47:35.612Z,11.30
2019-04-11T17:50:06.070Z,11.20
2019-04-11T17:52:37.349Z,11.10
2019-04-11T17:55:06.707Z,11.10
2019-04-11T17:57:35.939Z,11.00
2019-04-11T18:00:08.524Z,10.90
2019-04-11T18:02:39.053Z,10.80
2019-04-11T18:05:08.871Z,10.70
2019-04-11T18:07:38.142Z,10.60
2019-04-11T18:10:07.575Z,10.60
2019-04-11T18:12:37.819Z,10.60
2019-04-11T18:15:07.570Z,10.50
2019-04-11T18:17:36.941Z,10.50
2019-04-11T18:20:08.458Z,10.50
2019-04-11T18:22:39.669Z,10.40
2019-04-11T18:25:10.934Z,10.40
2019-04-11T18:27:51.584Z,10.30
2019-04-11T18:30:14.558Z,10.20
2019-04-11T18:32:43.828Z,10.20
2019-04-11T18:35:13.251Z,10.10
2019-04-11T18:37:42.573Z,10.10
2019-04-11T18:40:13.466Z,10.00
2019-04-11T18:42:42.839Z,10.00
2019-04-11T18:45:14.982Z,9.90
2019-04-11T18:47:44.330Z,9.90
2019-04-11T18:50:13.795Z,9.80
2019-04-11T18:52:43.559Z,9.80
2019-04-11T18:55:12.817Z,9.70
2019-04-11T18:57:42.046Z,9.70
2019-04-11T19:00:13.839Z,9.70
2019-04-11T19:02:43.166Z,9.60
2019-04-11T19:05:13.365Z,9.60
2019-04-11T19:07:43.610Z,9.60
2019-04-11T19:10:15.000Z,9.50
2019-04-11T19:12:46.208Z,9.50
2019-04-11T19:15:16.712Z,9.40
2019-04-11T19:17:47.068Z,9.40
2019-04-11T19:20:18.881Z,9.40
2019-04-11T19:22:48.523Z,9.40
2019-04-11T19:25:17.763Z,9.40
2019-04-11T19:27:50.427Z,9.30
2019-04-11T19:30:17.857Z,9.30
2019-04-11T19:32:48.378Z,9.30
2019-04-11T19:35:17.706Z,9.20
2019-04-11T19:37:47.040Z,9.20
2019-04-11T19:40:17.037Z,9.20
2019-04-11T19:42:48.776Z,9.20
2019-04-11T19:45:19.538Z,9.10
2019-04-11T19:47:51.691Z,9.10
2019-04-11T19:50:19.070Z,9.00
2019-04-11T19:52:48.334Z,8.90
2019-04-11T19:55:21.945Z,8.90
2019-04-11T19:57:51.286Z,8.90
2019-04-11T20:00:21.602Z,8.90
2019-04-11T20:02:51.854Z,8.80
2019-04-11T20:05:22.222Z,8.80
2019-04-11T20:07:51.509Z,8.80
2019-04-11T20:10:20.741Z,8.70
2019-04-11T20:12:50.010Z,8.70
2019-04-11T20:15:19.262Z,8.70
2019-04-11T20:17:52.034Z,8.70
2019-04-11T20:20:19.463Z,8.60
2019-04-11T20:22:58.453Z,8.60
2019-04-11T20:25:19.603Z,8.60
2019-04-11T20:27:50.691Z,8.60
2019-04-11T20:30:19.730Z,8.60
2019-04-11T20:32:48.982Z,8.50
2019-04-11T20:35:28.455Z,8.50
2019-04-11T20:37:50.405Z,8.50
2019-04-11T20:40:22.364Z,8.50
2019-04-11T20:42:54.046Z,8.40
2019-04-11T20:45:21.883Z,8.40
2019-04-11T20:47:51.133Z,8.30
2019-04-11T20:50:20.322Z,8.30
2019-04-11T20:52:49.580Z,8.30
2019-04-11T20:55:20.471Z,8.40
2019-04-11T20:57:49.810Z,8.30
2019-04-11T21:00:19.092Z,8.30
2019-04-11T21:02:48.358Z,8.30
2019-04-11T21:05:17.604Z,8.20
2019-04-11T21:07:46.765Z,8.20
2019-04-11T21:10:15.981Z,8.10
2019-04-11T21:12:45.152Z,8.10
2019-04-11T21:15:15.974Z,8.10
2019-04-11T21:17:45.216Z,8.10
2019-04-11T21:20:14.518Z,8.00
2019-04-11T21:22:43.763Z,8.00
2019-04-11T21:25:12.935Z,8.00
2019-04-11T21:27:42.195Z,7.90
2019-04-11T21:30:11.489Z,7.90
2019-04-11T21:32:40.730Z,7.80
2019-04-11T21:35:09.985Z,7.80
2019-04-11T21:37:39.266Z,7.80
2019-04-11T21:40:09.460Z,7.70
2019-04-11T21:42:38.650Z,7.70
2019-04-11T21:45:07.930Z,7.70
2019-04-11T21:47:38.015Z,7.70
2019-04-11T21:50:09.540Z,7.70
2019-04-11T21:52:38.464Z,7.70
2019-04-11T21:55:07.706Z,7.70
2019-04-11T21:57:37.031Z,7.70
2019-04-11T22:00:09.557Z,7.70
2019-04-11T22:02:40.413Z,7.60
2019-04-11T22:05:09.962Z,7.70
2019-04-11T22:07:39.270Z,7.60
2019-04-11T22:10:08.600Z,7.60
2019-04-11T22:12:40.075Z,7.50
2019-04-11T22:15:11.696Z,7.50
2019-04-11T22:17:39.800Z,7.50
2019-04-11T22:20:09.111Z,7.50
2019-04-11T22:22:38.302Z,7.60
2019-04-11T22:25:07.498Z,7.50
2019-04-11T22:27:36.743Z,7.50
2019-04-11T22:30:07.419Z,7.50
2019-04-11T22:32:37.479Z,7.50
2019-04-11T22:35:06.739Z,7.40
2019-04-11T22:37:36.070Z,7.40
2019-04-11T22:40:09.939Z,7.50
2019-04-11T22:42:39.247Z,7.40
2019-04-11T22:45:09.148Z,7.40
2019-04-11T22:47:38.987Z,7.40
2019-04-11T22:50:10.070Z,7.40
2019-04-11T22:52:39.873Z,7.30
2019-04-11T22:55:11.325Z,7.30
2019-04-11T22:57:43.618Z,7.30
2019-04-11T23:01:06.216Z,7.30
2019-04-11T23:03:55.002Z,7.30
2019-04-11T23:06:24.275Z,7.30
2019-04-11T23:08:53.548Z,7.30
2019-04-11T23:11:22.827Z,7.30
2019-04-11T23:13:52.066Z,7.20
2019-04-11T23:16:21.328Z,7.20
2019-04-11T23:18:50.589Z,7.10
2019-04-11T23:21:19.845Z,7.10
2019-04-11T23:23:49.052Z,7.00
2019-04-11T23:26:18.357Z,7.00
2019-04-11T23:28:47.573Z,7.00
2019-04-11T23:31:19.768Z,7.00
2019-04-11T23:33:51.442Z,6.90
2019-04-11T23:36:21.168Z,6.90
2019-04-11T23:38:52.761Z,6.90
2019-04-11T23:41:21.038Z,6.90
2019-04-11T23:43:50.508Z,6.90
2019-04-11T23:46:21.435Z,6.80
2019-04-11T23:48:54.591Z,6.70
2019-04-11T23:51:25.445Z,6.70
2019-04-11T23:53:52.481Z,6.70
2019-04-11T23:56:21.750Z,6.70
2019-04-11T23:58:50.993Z,6.60
